createdAt,value
2019-04-21T00:00:55.403Z,92927.57
2019-04-21T00:03:26.097Z,92927.33
2019-04-21T00:06:09.210Z,92918.16
2019-04-21T00:08:56.454Z,92921.09
2019-04-21T00:11:18.585Z,92919.14
2019-04-21T00:13:36.304Z,92923.73
2019-04-21T00:15:58.958Z,92921.81
2019-04-21T00:18:50.594Z,92919.61
2019-04-21T00:21:26.921Z,92927.45
2019-04-21T00:24:17.697Z,92916.01
2019-04-21T00:26:55.723Z,92917.59
2019-04-21T00:29:31.370Z,92921.68
2019-04-21T00:31:55.015Z,92916.40
2019-04-21T00:34:11.192Z,92913.52
2019-04-21T00:36:54.872Z,92909.41
2019-04-21T00:39:45.035Z,92909.30
2019-04-21T00:41:59.922Z,92902.55
2019-04-21T00:44:24.482Z,92905.14
2019-04-21T00:47:00.687Z,92904.76
2019-04-21T00:49:34.252Z,92908.82
2019-04-21T00:52:48.373Z,92905.73
2019-04-21T00:55:20.343Z,92908.95
2019-04-21T00:57:45.202Z,92903.88
2019-04-21T01:00:11.823Z,92908.79
2019-04-21T01:05:17.918Z,92912.59
2019-04-21T01:07:41.946Z,92917.39
2019-04-21T01:10:09.432Z,92912.83
2019-04-21T01:12:49.259Z,92924.51
2019-04-21T01:15:26.047Z,92913.02
2019-04-21T01:17:46.033Z,92915.20
2019-04-21T01:20:12.981Z,92919.79
2019-04-21T01:22:28.814Z,92932.48
2019-04-21T01:25:11.151Z,92927.95
2019-04-21T01:27:50.785Z,92917.34
2019-04-21T01:30:22.351Z,92914.41
2019-04-21T01:32:53.294Z,92916.22
2019-04-21T01:35:26.995Z,92917.17
2019-04-21T01:37:55.750Z,92913.26
2019-04-21T01:40:29.661Z,92920.02
2019-04-21T01:43:00.478Z,92904.67
2019-04-21T01:45:26.569Z,92909.73
2019-04-21T01:48:01.334Z,92905.78
2019-04-21T01:50:30.057Z,92903.22
2019-04-21T01:53:24.806Z,92905.05
2019-04-21T01:56:11.629Z,92914.13
2019-04-21T01:58:39.773Z,92902.55
2019-04-21T02:01:21.623Z,92900.67
2019-04-21T02:03:52.930Z,92902.22
2019-04-21T02:06:21.235Z,92901.72
2019-04-21T02:08:49.429Z,92902.44
2019-04-21T02:11:28.145Z,92907.56
2019-04-21T02:13:57.637Z,92902.77
2019-04-21T02:16:29.299Z,92902.77
2019-04-21T02:18:55.596Z,92903.07
2019-04-21T02:21:21.857Z,92898.63
2019-04-21T02:24:05.022Z,92899.75
2019-04-21T02:26:34.457Z,92896.16
2019-04-21T02:29:10.086Z,92897.83
2019-04-21T02:31:45.322Z,92894.50
2019-04-21T02:36:57.045Z,92893.28
2019-04-21T02:41:48.942Z,92887.69
2019-04-21T02:44:24.032Z,92898.56
2019-04-21T02:59:42.225Z,92885.34
2019-04-21T03:02:26.635Z,92879.61
2019-04-21T03:05:11.677Z,92889.94
2019-04-21T03:07:46.431Z,92893.55
2019-04-21T03:10:11.533Z,92893.47
2019-04-21T03:12:42.259Z,92896.06
2019-04-21T03:15:21.378Z,92891.36
2019-04-21T03:20:17.002Z,92887.95
2019-04-21T03:23:07.748Z,92901.25
2019-04-21T03:35:58.197Z,92889.23
2019-04-21T03:38:00.190Z,92885.60
2019-04-21T03:40:22.195Z,92883.28
2019-04-21T03:43:01.823Z,92882.91
2019-04-21T03:45:32.648Z,92880.80
2019-04-21T03:50:41.151Z,92880.75
2019-04-21T03:58:15.164Z,92882.80
2019-04-21T04:01:02.878Z,92888.39
2019-04-21T04:06:53.703Z,92888.41
2019-04-21T04:16:50.203Z,92893.97
2019-04-21T04:19:37.854Z,92893.62
2019-04-21T04:21:56.829Z,92888.31
2019-04-21T04:24:24.422Z,92890.11
2019-04-21T04:26:47.534Z,92892.05
2019-04-21T04:29:19.582Z,92886.41
2019-04-21T04:31:43.246Z,92879.86
2019-04-21T04:34:24.440Z,92893.11
2019-04-21T04:37:14.508Z,92884.27
2019-04-21T04:47:16.734Z,92891.91
2019-04-21T04:49:55.047Z,92889.28
2019-04-21T04:52:34.480Z,92885.09
2019-04-21T04:54:59.469Z,92888.67
2019-04-21T04:57:47.022Z,92882.91
2019-04-21T05:00:01.744Z,92891.31
2019-04-21T05:15:04.485Z,92881.07
2019-04-21T05:20:10.464Z,92878.34
2019-04-21T05:22:33.490Z,92873.41
2019-04-21T05:24:53.725Z,92877.25
2019-04-21T05:27:49.481Z,92873.16
2019-04-21T05:33:34.411Z,92883.23
2019-04-21T05:36:09.397Z,92883.00
2019-04-21T05:39:14.857Z,92879.25
2019-04-21T05:41:38.602Z,92870.68
2019-04-21T05:44:27.966Z,92881.34
2019-04-21T05:46:59.428Z,92877.70
2019-04-21T05:49:29.349Z,92876.04
2019-04-21T05:51:58.349Z,92872.63
2019-04-21T05:57:11.926Z,92865.91
2019-04-21T05:59:41.776Z,92864.86
2019-04-21T06:02:18.553Z,92860.94
2019-04-21T06:05:01.949Z,92863.78
2019-04-21T06:07:18.914Z,92855.10
2019-04-21T06:09:53.815Z,92853.53
2019-04-21T06:12:14.626Z,92856.14
2019-04-21T06:14:48.436Z,92861.98
2019-04-21T06:19:50.131Z,92853.98
2019-04-21T06:22:15.139Z,92854.12
2019-04-21T06:25:15.687Z,92862.34
2019-04-21T06:27:28.399Z,92855.64
2019-04-21T06:29:54.004Z,92858.11
2019-04-21T06:42:39.209Z,92845.92
2019-04-21T06:45:05.998Z,92840.27
2019-04-21T06:47:47.772Z,92843.97
2019-04-21T06:50:06.354Z,92846.91
2019-04-21T06:52:52.155Z,92845.56
2019-04-21T06:55:12.579Z,92841.12
2019-04-21T06:57:38.947Z,92845.38
2019-04-21T07:00:10.121Z,92844.91
2019-04-21T07:03:02.933Z,92849.19
2019-04-21T07:05:15.033Z,92844.88
2019-04-21T07:07:51.736Z,92845.73
2019-04-21T07:10:16.644Z,92839.55
2019-04-21T07:12:39.228Z,92840.16
2019-04-21T07:15:22.289Z,92834.57
2019-04-21T07:17:45.654Z,92840.49
2019-04-21T07:20:17.160Z,92834.61
2019-04-21T07:25:22.067Z,92838.28
2019-04-21T07:27:52.812Z,92838.19
2019-04-21T07:30:26.648Z,92834.95
2019-04-21T07:33:08.940Z,92840.69
2019-04-21T07:35:28.568Z,92832.11
2019-04-21T07:37:57.667Z,92835.81
2019-04-21T07:40:24.934Z,92830.58
2019-04-21T07:42:51.426Z,92835.20
2019-04-21T07:45:23.032Z,92827.92
2019-04-21T07:48:03.138Z,92825.43
2019-04-21T07:50:46.649Z,92812.80
2019-04-21T07:53:27.837Z,92819.50
2019-04-21T07:55:35.792Z,92808.81
2019-04-21T07:58:21.328Z,92809.67
2019-04-21T08:00:56.296Z,92801.03
2019-04-21T08:03:30.328Z,92804.70
2019-04-21T08:05:58.650Z,92806.45
2019-04-21T08:08:26.517Z,92798.09
2019-04-21T08:10:57.377Z,92801.46
2019-04-21T08:13:40.050Z,92802.96
2019-04-21T08:16:07.361Z,92790.64
2019-04-21T08:18:35.254Z,92788.63
2019-04-21T08:21:02.703Z,92790.39
2019-04-21T08:23:39.599Z,92790.34
2019-04-21T08:26:07.750Z,92784.33
2019-04-21T08:28:42.612Z,92787.00
2019-04-21T08:31:07.973Z,92773.94
2019-04-21T08:38:46.010Z,92766.63
2019-04-21T08:41:12.351Z,92763.80
2019-04-21T08:43:46.846Z,92762.63
2019-04-21T08:46:13.062Z,92760.67
2019-04-21T08:48:48.028Z,92755.03
2019-04-21T08:51:27.709Z,92755.87
2019-04-21T08:53:57.550Z,92753.31
2019-04-21T08:56:37.187Z,92743.84
2019-04-21T09:02:23.714Z,92741.53
2019-04-21T09:04:53.905Z,92737.78
2019-04-21T09:07:25.847Z,92731.78
2019-04-21T09:09:54.720Z,92723.30
2019-04-21T09:12:21.253Z,92718.27
2019-04-21T09:14:56.720Z,92711.44
2019-04-21T09:17:20.594Z,92707.27
2019-04-21T09:20:01.347Z,92698.17
2019-04-21T09:22:28.746Z,92704.08
2019-04-21T09:24:58.940Z,92694.20
2019-04-21T09:27:27.420Z,92691.25
2019-04-21T09:29:46.757Z,92683.87
2019-04-21T09:32:18.236Z,92677.16
2019-04-21T09:34:45.649Z,92677.69
2019-04-21T09:37:26.841Z,92675.94
2019-04-21T09:39:49.963Z,92675.54
2019-04-21T09:42:19.709Z,92671.15
2019-04-21T09:44:55.223Z,92669.98
2019-04-21T09:47:24.353Z,92667.44
2019-04-21T09:49:51.685Z,92659.92
2019-04-21T09:52:28.965Z,92661.98
2019-04-21T09:55:03.989Z,92653.22
2019-04-21T09:57:35.034Z,92657.02
2019-04-21T10:00:02.475Z,92647.94
2019-04-21T10:02:35.241Z,92642.50
2019-04-21T10:04:57.322Z,92638.25
2019-04-21T10:07:33.389Z,92628.69
2019-04-21T10:09:58.210Z,92624.11
2019-04-21T10:12:28.719Z,92625.53
2019-04-21T10:14:59.438Z,92622.27
2019-04-21T10:17:42.331Z,92611.72
2019-04-21T10:20:11.910Z,92615.94
2019-04-21T10:22:41.441Z,92608.64
2019-04-21T10:25:12.410Z,92605.89
2019-04-21T10:27:43.178Z,92607.73
2019-04-21T10:30:14.053Z,92594.45
2019-04-21T10:32:44.264Z,92591.56
2019-04-21T10:35:14.887Z,92587.63
2019-04-21T10:37:58.170Z,92576.48
2019-04-21T10:40:17.655Z,92577.34
2019-04-21T10:42:48.100Z,92576.67
2019-04-21T10:45:18.901Z,92577.77
2019-04-21T10:47:49.339Z,92574.02
2019-04-21T10:50:20.367Z,92570.77
2019-04-21T10:53:09.202Z,92564.10
2019-04-21T10:55:54.387Z,92563.24
2019-04-21T10:58:12.175Z,92554.69
2019-04-21T11:00:42.270Z,92563.63
2019-04-21T11:03:30.919Z,92559.20
2019-04-21T11:06:01.137Z,92556.55
2019-04-21T11:08:35.660Z,92546.00
2019-04-21T11:11:01.707Z,92550.36
2019-04-21T11:13:32.500Z,92557.06
2019-04-21T11:16:03.410Z,92547.30
2019-04-21T11:18:33.970Z,92549.22
2019-04-21T11:21:04.832Z,92542.27
2019-04-21T11:23:35.378Z,92545.94
2019-04-21T11:26:06.384Z,92548.35
2019-04-21T11:28:36.845Z,92538.13
2019-04-21T11:31:07.038Z,92541.23
2019-04-21T11:33:37.629Z,92540.13
2019-04-21T11:36:11.153Z,92536.41
2019-04-21T11:39:16.878Z,92537.50
2019-04-21T11:41:34.040Z,92543.20
2019-04-21T11:44:05.051Z,92536.48
2019-04-21T11:46:34.624Z,92522.09
2019-04-21T11:49:04.211Z,92523.51
2019-04-21T11:51:35.160Z,92521.33
2019-04-21T11:54:04.967Z,92519.50
2019-04-21T11:56:34.796Z,92525.69
2019-04-21T11:59:05.766Z,92520.16
2019-04-21T12:01:35.964Z,92527.03
2019-04-21T12:04:07.497Z,92521.00
2019-04-21T12:06:41.582Z,92517.00
2019-04-21T12:09:09.971Z,92504.29
2019-04-21T12:11:39.459Z,92512.42
2019-04-21T12:14:09.993Z,92507.48
2019-04-21T12:16:39.459Z,92507.78
2019-04-21T12:19:09.176Z,92501.67
2019-04-21T12:21:50.544Z,92500.00
2019-04-21T12:24:11.044Z,92494.54
2019-04-21T12:26:40.644Z,92488.47
2019-04-21T12:29:10.611Z,92491.17
2019-04-21T12:31:53.871Z,92486.33
2019-04-21T12:34:23.808Z,92484.55
2019-04-21T12:36:54.883Z,92476.80
2019-04-21T12:39:25.074Z,92472.20
2019-04-21T12:41:56.394Z,92472.75
2019-04-21T12:44:27.432Z,92476.86
2019-04-21T12:46:57.871Z,92473.59
2019-04-21T12:49:27.664Z,92467.15
2019-04-21T12:51:57.695Z,92457.09
2019-04-21T12:54:27.926Z,92469.48
2019-04-21T12:56:57.489Z,92466.80
2019-04-21T12:59:29.233Z,92457.98
2019-04-21T13:01:59.064Z,92451.40
2019-04-21T13:04:29.385Z,92456.11
2019-04-21T13:06:59.474Z,92447.93
2019-04-21T13:09:31.728Z,92449.73
2019-04-21T13:12:01.322Z,92448.14
2019-04-21T13:14:31.566Z,92454.74
2019-04-21T13:17:01.411Z,92451.16
2019-04-21T13:19:31.877Z,92446.48
2019-04-21T13:22:01.677Z,92447.34
2019-04-21T13:24:31.848Z,92449.20
2019-04-21T13:27:03.292Z,92444.70
2019-04-21T13:29:34.340Z,92446.47
2019-04-21T13:32:05.469Z,92445.61
2019-04-21T13:34:35.902Z,92442.45
2019-04-21T13:37:05.825Z,92449.55
2019-04-21T13:40:07.564Z,92445.76
2019-04-21T13:42:25.917Z,92439.92
2019-04-21T13:44:48.801Z,92440.97
2019-04-21T13:47:18.641Z,92446.52
2019-04-21T13:49:49.511Z,92440.56
2019-04-21T13:52:18.988Z,92440.56
2019-04-21T13:54:49.558Z,92441.17
2019-04-21T13:57:20.703Z,92442.03
2019-04-21T13:59:51.356Z,92435.88
2019-04-21T14:02:20.854Z,92434.77
2019-04-21T14:04:51.678Z,92427.14
2019-04-21T14:07:21.198Z,92427.39
2019-04-21T14:09:57.584Z,92422.24
2019-04-21T14:12:21.563Z,92420.58
2019-04-21T14:14:52.435Z,92418.73
2019-04-21T14:17:22.551Z,92422.14
2019-04-21T14:19:53.175Z,92422.55
2019-04-21T14:22:26.292Z,92412.36
2019-04-21T14:24:56.275Z,92414.95
2019-04-21T14:27:28.200Z,92413.30
2019-04-21T14:29:57.971Z,92410.85
2019-04-21T14:32:29.563Z,92401.73
2019-04-21T14:34:58.773Z,92402.50
2019-04-21T14:37:28.717Z,92401.63
2019-04-21T14:40:06.584Z,92407.26
2019-04-21T14:42:29.867Z,92400.44
2019-04-21T14:45:00.864Z,92400.64
2019-04-21T14:47:54.157Z,92399.01
2019-04-21T14:50:42.155Z,92401.95
2019-04-21T14:53:18.291Z,92404.17
2019-04-21T14:55:49.175Z,92403.94
2019-04-21T14:58:19.306Z,92398.09
2019-04-21T15:00:51.411Z,92403.36
2019-04-21T15:03:23.641Z,92400.22
2019-04-21T15:05:53.620Z,92399.87
2019-04-21T15:08:23.019Z,92395.47
2019-04-21T15:10:52.797Z,92388.97
2019-04-21T15:13:23.643Z,92389.98
2019-04-21T15:15:54.265Z,92400.80
2019-04-21T15:18:23.773Z,92397.91
2019-04-21T15:20:53.483Z,92388.87
2019-04-21T15:23:25.216Z,92392.34
2019-04-21T15:25:54.381Z,92396.02
2019-04-21T15:28:23.705Z,92396.45
2019-04-21T15:30:54.175Z,92396.42
2019-04-21T15:33:24.528Z,92393.48
2019-04-21T15:35:55.387Z,92392.91
2019-04-21T15:38:25.497Z,92392.48
2019-04-21T15:40:57.998Z,92387.55
2019-04-21T15:43:26.588Z,92387.08
2019-04-21T15:45:57.112Z,92386.60
2019-04-21T15:48:26.769Z,92389.91
2019-04-21T15:50:56.763Z,92385.19
2019-04-21T15:53:27.736Z,92382.06
2019-04-21T15:56:04.637Z,92382.01
2019-04-21T15:58:48.750Z,92382.23
2019-04-21T16:01:32.489Z,92383.12
2019-04-21T16:04:02.840Z,92378.23
2019-04-21T16:06:33.086Z,92380.65
2019-04-21T16:09:03.259Z,92377.81
2019-04-21T16:11:33.717Z,92374.18
2019-04-21T16:14:03.775Z,92376.37
2019-04-21T16:16:34.580Z,92368.73
2019-04-21T16:19:05.991Z,92366.42
2019-04-21T16:21:40.100Z,92369.94
2019-04-21T16:24:06.976Z,92366.81
2019-04-21T16:26:38.308Z,92370.44
2019-04-21T16:29:08.991Z,92365.48
2019-04-21T16:31:38.711Z,92370.29
2019-04-21T16:34:09.300Z,92369.05
2019-04-21T16:36:39.106Z,92368.28
2019-04-21T16:39:09.503Z,92372.66
2019-04-21T16:41:40.399Z,92373.11
2019-04-21T16:44:11.210Z,92371.11
2019-04-21T16:46:41.327Z,92365.05
2019-04-21T16:49:11.840Z,92368.22
2019-04-21T16:51:42.296Z,92363.37
2019-04-21T16:54:20.325Z,92367.27
2019-04-21T16:57:05.918Z,92367.75
2019-04-21T16:59:40.151Z,92370.50
2019-04-21T17:02:10.398Z,92365.86
2019-04-21T17:04:40.305Z,92374.42
2019-04-21T17:07:11.336Z,92368.59
2019-04-21T17:09:40.999Z,92376.23
2019-04-21T17:12:14.204Z,92377.08
2019-04-21T17:14:58.457Z,92370.05
2019-04-21T17:17:36.886Z,92378.71
2019-04-21T17:19:48.553Z,92375.30
2019-04-21T17:22:17.890Z,92376.97
2019-04-21T17:24:48.425Z,92378.13
2019-04-21T17:27:18.023Z,92379.34
2019-04-21T17:29:48.678Z,92390.89
2019-04-21T17:32:43.289Z,92397.18
2019-04-21T17:35:10.162Z,92396.87
2019-04-21T17:37:43.369Z,92402.41
2019-04-21T17:40:13.584Z,92404.53
2019-04-21T17:42:49.066Z,92400.22
2019-04-21T17:45:15.170Z,92404.46
2019-04-21T17:47:52.501Z,92406.98
2019-04-21T17:50:43.604Z,92405.56
2019-04-21T17:53:20.040Z,92408.09
2019-04-21T17:55:54.092Z,92416.84
2019-04-21T17:58:34.190Z,92417.47
2019-04-21T18:03:45.809Z,92425.87
2019-04-21T18:06:05.941Z,92439.88
2019-04-21T18:08:40.135Z,92437.20
2019-04-21T18:11:02.348Z,92439.99
2019-04-21T18:13:26.559Z,92443.39
2019-04-21T18:16:08.234Z,92448.72
2019-04-21T18:18:26.513Z,92455.09
2019-04-21T18:21:05.052Z,92453.33
2019-04-21T18:23:48.414Z,92456.61
2019-04-21T18:26:24.733Z,92454.13
2019-04-21T18:28:42.708Z,92455.69
2019-04-21T18:31:16.419Z,92457.63
2019-04-21T18:34:12.787Z,92461.23
2019-04-21T18:36:55.619Z,92457.72
2019-04-21T18:39:46.451Z,92453.66
2019-04-21T18:42:26.525Z,92450.42
2019-04-21T18:47:59.508Z,92455.30
2019-04-21T18:50:47.850Z,92461.25
2019-04-21T18:53:41.537Z,92467.05
2019-04-21T18:56:05.140Z,92467.26
2019-04-21T18:58:28.789Z,92471.48
2019-04-21T19:01:06.857Z,92465.98
2019-04-21T19:03:36.711Z,92468.49
2019-04-21T19:06:08.739Z,92464.45
2019-04-21T19:08:53.359Z,92469.25
2019-04-21T19:11:23.798Z,92477.34
2019-04-21T19:17:13.680Z,92488.16
2019-04-21T19:22:00.589Z,92486.97
2019-04-21T19:24:48.655Z,92488.17
2019-04-21T19:27:04.601Z,92492.14
2019-04-21T19:29:38.006Z,92496.51
2019-04-21T19:32:11.960Z,92499.84
2019-04-21T19:34:25.997Z,92502.41
2019-04-21T19:36:57.899Z,92499.22
2019-04-21T19:39:34.997Z,92505.53
2019-04-21T19:42:07.180Z,92506.94
2019-04-21T19:44:44.914Z,92507.06
2019-04-21T19:47:13.858Z,92504.22
2019-04-21T19:49:45.246Z,92510.94
2019-04-21T19:52:05.198Z,92518.56
2019-04-21T19:54:34.177Z,92511.97
2019-04-21T19:56:58.773Z,92514.14
2019-04-21T19:59:38.075Z,92520.98
2019-04-21T20:02:00.289Z,92527.95
2019-04-21T20:04:36.794Z,92532.83
2019-04-21T20:07:16.823Z,92532.53
2019-04-21T20:09:45.239Z,92531.59
2019-04-21T20:12:18.927Z,92539.34
2019-04-21T20:14:59.451Z,92529.05
2019-04-21T20:17:24.384Z,92536.98
2019-04-21T20:19:40.292Z,92529.23
2019-04-21T20:22:11.301Z,92536.32
2019-04-21T20:24:50.109Z,92539.43
2019-04-21T20:27:17.658Z,92538.91
2019-04-21T20:30:01.764Z,92537.65
2019-04-21T20:32:31.685Z,92542.14
2019-04-21T20:35:07.061Z,92546.09
2019-04-21T20:37:31.835Z,92540.83
2019-04-21T20:39:59.839Z,92541.49
2019-04-21T20:42:36.264Z,92539.92
2019-04-21T20:45:22.110Z,92540.74
2019-04-21T20:47:33.041Z,92534.89
2019-04-21T20:50:11.410Z,92536.03
2019-04-21T20:52:50.889Z,92530.08
2019-04-21T20:55:04.952Z,92537.80
2019-04-21T20:57:44.568Z,92539.17
2019-04-21T21:00:25.715Z,92538.09
2019-04-21T21:02:53.511Z,92547.83
2019-04-21T21:05:19.062Z,92543.50
2019-04-21T21:08:11.558Z,92547.05
2019-04-21T21:10:20.484Z,92547.44
2019-04-21T21:13:00.590Z,92541.16
2019-04-21T21:15:18.342Z,92548.68
2019-04-21T21:18:06.183Z,92541.28
2019-04-21T21:20:32.446Z,92545.30
2019-04-21T21:22:56.170Z,92538.52
2019-04-21T21:25:40.094Z,92543.50
2019-04-21T21:27:55.253Z,92542.77
2019-04-21T21:30:31.301Z,92542.72
2019-04-21T21:33:04.593Z,92547.59
2019-04-21T21:35:34.138Z,92553.84
2019-04-21T21:38:16.097Z,92555.37
2019-04-21T21:40:36.008Z,92546.06
2019-04-21T21:42:55.664Z,92551.17
2019-04-21T21:45:27.533Z,92557.42
2019-04-21T21:48:17.150Z,92557.22
2019-04-21T21:50:35.771Z,92559.06
2019-04-21T21:53:07.783Z,92557.09
2019-04-21T21:55:32.795Z,92551.05
2019-04-21T21:58:03.485Z,92554.84
2019-04-21T22:00:36.174Z,92551.43
2019-04-21T22:03:16.284Z,92558.73
2019-04-21T22:05:48.252Z,92558.73
2019-04-21T22:08:06.794Z,92559.88
2019-04-21T22:10:36.965Z,92558.05
2019-04-21T22:13:12.050Z,92553.54
2019-04-21T22:15:37.697Z,92551.36
2019-04-21T22:18:29.454Z,92551.77
2019-04-21T22:20:57.488Z,92547.34
2019-04-21T22:23:24.194Z,92542.63
2019-04-21T22:25:45.383Z,92538.33
2019-04-21T22:28:14.144Z,92541.44
2019-04-21T22:30:47.553Z,92538.64
2019-04-21T22:33:17.732Z,92542.77
2019-04-21T22:35:53.287Z,92542.27
2019-04-21T22:38:31.052Z,92541.95
2019-04-21T22:41:02.896Z,92535.60
2019-04-21T22:43:26.373Z,92535.19
2019-04-21T22:45:49.896Z,92544.09
2019-04-21T22:48:22.786Z,92544.10
2019-04-21T22:50:50.669Z,92534.47
2019-04-21T22:53:21.418Z,92537.75
2019-04-21T22:55:58.738Z,92537.23
2019-04-21T22:58:25.761Z,92533.43
2019-04-21T23:00:57.091Z,92530.14
2019-04-21T23:03:26.400Z,92533.81
2019-04-21T23:05:55.929Z,92530.00
2019-04-21T23:08:31.803Z,92529.50
2019-04-21T23:11:01.467Z,92522.45
2019-04-21T23:13:29.271Z,92525.73
2019-04-21T23:16:01.452Z,92527.06
2019-04-21T23:18:47.984Z,92527.38
2019-04-21T23:21:18.620Z,92520.30
2019-04-21T23:23:51.787Z,92520.40
2019-04-21T23:26:26.690Z,92515.87
2019-04-21T23:28:56.868Z,92521.74
2019-04-21T23:31:29.051Z,92521.59
2019-04-21T23:33:38.216Z,92517.38
2019-04-21T23:36:13.909Z,92520.26
2019-04-21T23:38:44.263Z,92519.66
2019-04-21T23:41:11.326Z,92514.23
2019-04-21T23:43:44.209Z,92514.05
2019-04-21T23:46:19.848Z,92509.01
2019-04-21T23:49:02.357Z,92510.53
2019-04-21T23:51:26.899Z,92502.54
2019-04-21T23:53:44.753Z,92504.53
2019-04-21T23:56:22.704Z,92498.95
2019-04-21T23:58:52.016Z,92498.45
